Time;durP1;ratioP1;P1;durP2;ratioP2;P2;SDS_P1;SDS_P2;PMS_P1;PMS_P2;Temp;Humidity;BMP_temperature;BMP_pressure;BME280_temperature;BME280_humidity;BME280_pressure;Samples;Min_cycle;Max_cycle;Signal;HPM_P1;HPM_P2
2021/09/12 00:00:52;;;;;;;46.80;37.20;;;26.30;99.70;;;;;;5075142;28;20577;-84
2021/09/12 00:03:18;;;;;;;48.03;37.35;;;26.30;99.70;;;;;;5092989;28;20028;-86
2021/09/12 00:05:43;;;;;;;46.72;37.65;;;26.30;99.70;;;;;;5075292;28;20355;-84
2021/09/12 00:08:09;;;;;;;45.15;36.33;;;26.30;99.70;;;;;;5074951;28;20036;-85
2021/09/12 00:10:35;;;;;;;45.85;36.38;;;26.30;99.70;;;;;;5092973;28;20035;-84
2021/09/12 00:13:00;;;;;;;46.55;36.78;;;26.30;99.60;;;;;;5092044;28;20036;-83
2021/09/12 00:15:26;;;;;;;45.75;35.75;;;26.30;99.90;;;;;;5074791;28;20035;-84
2021/09/12 00:17:52;;;;;;;46.70;36.42;;;26.30;99.60;;;;;;5091702;28;20359;-84
2021/09/12 00:20:18;;;;;;;44.17;34.83;;;26.30;99.70;;;;;;5074594;28;20056;-83
2021/09/12 00:22:44;;;;;;;42.65;34.92;;;26.30;99.60;;;;;;5092737;28;20024;-84
2021/09/12 00:25:10;;;;;;;41.22;33.60;;;26.30;99.60;;;;;;5093044;28;20406;-84
2021/09/12 00:27:36;;;;;;;45.50;36.38;;;26.30;99.60;;;;;;5091781;28;20032;-85
2021/09/12 00:30:04;;;;;;;45.15;34.95;;;26.30;99.70;;;;;;5093028;28;20168;-85
2021/09/12 00:32:29;;;;;;;43.30;34.80;;;26.30;99.60;;;;;;5092592;28;20070;-84
2021/09/12 00:34:55;;;;;;;41.90;33.60;;;26.30;99.60;;;;;;5092770;28;20028;-84
2021/09/12 00:37:20;;;;;;;41.45;33.97;;;26.30;99.60;;;;;;5095416;28;20036;-85
2021/09/12 00:39:49;;;;;;;44.42;35.05;;;26.30;99.60;;;;;;5095469;28;20089;-84
2021/09/12 00:42:14;;;;;;;39.80;33.08;;;26.30;99.60;;;;;;5096296;28;20073;-84
2021/09/12 00:44:40;;;;;;;40.67;32.97;;;26.30;99.60;;;;;;5095382;28;20024;-85
2021/09/12 00:47:11;;;;;;;41.78;33.22;;;26.30;99.60;;;;;;5095256;28;20580;-87
2021/09/12 00:49:38;;;;;;;41.13;33.28;;;26.30;99.70;;;;;;5096349;28;20032;-85
2021/09/12 00:52:10;;;;;;;39.13;30.88;;;26.30;99.60;;;;;;5096327;28;20024;-84
2021/09/12 00:54:36;;;;;;;39.90;32.67;;;26.30;99.70;;;;;;5095272;28;20474;-84
2021/09/12 00:57:08;;;;;;;38.72;31.83;;;26.30;99.60;;;;;;5096664;28;20052;-85
2021/09/12 00:59:38;;;;;;;37.80;31.08;;;26.30;99.60;;;;;;5095163;28;20024;-85
2021/09/12 01:02:06;;;;;;;37.85;30.88;;;26.30;99.60;;;;;;5095023;28;20032;-84
2021/09/12 01:04:33;;;;;;;39.95;31.08;;;26.30;99.60;;;;;;5094717;28;20115;-84
2021/09/12 01:07:03;;;;;;;36.22;30.13;;;26.30;99.60;;;;;;5096522;28;20032;-84
2021/09/12 01:09:30;;;;;;;36.03;29.98;;;26.30;99.60;;;;;;5094772;28;20067;-84
2021/09/12 01:11:58;;;;;;;36.50;30.58;;;26.30;99.60;;;;;;5096019;28;20024;-83
2021/09/12 01:14:25;;;;;;;37.08;29.55;;;26.30;99.60;;;;;;5094845;28;20024;-84
2021/09/12 01:16:51;;;;;;;34.95;29.52;;;26.30;99.60;;;;;;5095039;28;20024;-84
2021/09/12 01:19:17;;;;;;;37.28;30.08;;;26.30;99.60;;;;;;5094323;28;20032;-85
2021/09/12 01:21:43;;;;;;;35.65;29.35;;;26.30;99.60;;;;;;5077948;28;20461;-84
2021/09/12 01:24:10;;;;;;;36.40;30.10;;;26.30;99.60;;;;;;5095650;28;20032;-87
2021/09/12 01:26:36;;;;;;;36.78;30.33;;;26.30;99.60;;;;;;5094624;28;20032;-85
2021/09/12 01:29:01;;;;;;;35.13;28.98;;;26.30;99.60;;;;;;5094417;28;20093;-84
2021/09/12 01:31:29;;;;;;;37.28;29.00;;;26.30;99.60;;;;;;5094232;28;20039;-84
2021/09/12 01:33:56;;;;;;;33.17;28.23;;;26.30;99.60;;;;;;5095848;28;20021;-84
2021/09/12 01:36:22;;;;;;;32.90;27.27;;;26.30;99.60;;;;;;5095201;28;20054;-84
2021/09/12 01:38:47;;;;;;;35.35;28.17;;;26.30;99.60;;;;;;5095590;28;20036;-84
2021/09/12 01:41:13;;;;;;;33.33;27.55;;;26.30;99.60;;;;;;5094054;28;20123;-85
2021/09/12 01:43:55;;;;;;;36.03;28.30;;;26.30;99.60;;;;;;5094561;28;20043;-84
2021/09/12 01:46:21;;;;;;;33.45;26.88;;;26.30;99.60;;;;;;5095471;28;20035;-84
2021/09/12 01:48:47;;;;;;;36.30;27.98;;;26.30;99.60;;;;;;5095440;28;20039;-83
2021/09/12 01:51:13;;;;;;;36.75;27.45;;;26.20;99.50;;;;;;5094067;28;20036;-86
2021/09/12 01:53:40;;;;;;;30.75;25.75;;;26.30;99.60;;;;;;5077500;28;20032;-86
2021/09/12 01:56:06;;;;;;;30.70;25.65;;;26.30;99.60;;;;;;5077409;28;20042;-84
2021/09/12 01:58:32;;;;;;;30.45;24.67;;;26.30;99.60;;;;;;5095292;28;20070;-84
2021/09/12 02:00:58;;;;;;;30.70;25.20;;;26.30;99.50;;;;;;5095721;28;20025;-85
2021/09/12 02:03:24;;;;;;;29.85;24.88;;;26.30;99.60;;;;;;5095640;28;20028;-84
2021/09/12 02:05:49;;;;;;;29.33;24.38;;;26.30;99.60;;;;;;5094185;28;20028;-85
2021/09/12 02:08:15;;;;;;;30.73;25.17;;;26.30;99.50;;;;;;5093810;28;20033;-85
2021/09/12 02:10:42;;;;;;;27.92;23.20;;;26.20;99.50;;;;;;5077093;28;20119;-84
2021/09/12 02:13:08;;;;;;;29.25;23.90;;;26.30;99.50;;;;;;5095242;28;20032;-84
2021/09/12 02:15:34;;;;;;;30.23;24.23;;;26.30;99.50;;;;;;5076754;28;20034;-84
2021/09/12 02:18:00;;;;;;;28.27;22.52;;;26.30;99.50;;;;;;5094933;28;20111;-84
2021/09/12 02:20:25;;;;;;;29.05;23.20;;;26.20;99.50;;;;;;5097391;28;20058;-84
2021/09/12 02:22:51;;;;;;;30.85;23.75;;;26.20;99.50;;;;;;5097233;28;20081;-84
2021/09/12 02:25:16;;;;;;;28.63;23.30;;;26.20;99.50;;;;;;5094867;28;20036;-87
2021/09/12 02:27:42;;;;;;;28.42;22.77;;;26.20;99.50;;;;;;5093553;28;20477;-85
2021/09/12 02:30:08;;;;;;;29.52;22.70;;;26.20;99.50;;;;;;5093411;28;20028;-85
2021/09/12 02:32:34;;;;;;;27.35;21.92;;;26.30;99.50;;;;;;5094596;28;20036;-85
2021/09/12 02:35:00;;;;;;;28.02;22.48;;;26.30;99.50;;;;;;5093621;28;20032;-84
2021/09/12 02:37:25;;;;;;;26.90;22.48;;;26.30;99.50;;;;;;5093235;28;20446;-84
2021/09/12 02:39:51;;;;;;;26.38;21.75;;;26.30;99.50;;;;;;5076397;28;20389;-84
2021/09/12 02:42:17;;;;;;;26.50;20.45;;;26.20;99.50;;;;;;5093268;28;20036;-84
2021/09/12 02:44:43;;;;;;;24.83;20.27;;;26.30;99.50;;;;;;5092773;28;20512;-84
2021/09/12 02:47:08;;;;;;;24.65;20.92;;;26.20;99.50;;;;;;5093030;28;20056;-84
2021/09/12 02:49:34;;;;;;;26.20;21.40;;;26.30;99.50;;;;;;5092920;28;20060;-85
2021/09/12 02:52:00;;;;;;;28.60;22.08;;;26.20;99.50;;;;;;5094310;28;20071;-84
2021/09/12 02:54:25;;;;;;;24.45;19.98;;;26.20;99.50;;;;;;5094146;28;20442;-85
2021/09/12 02:56:51;;;;;;;23.90;18.63;;;26.30;99.50;;;;;;5093946;28;20513;-84
2021/09/12 02:59:19;;;;;;;22.25;18.70;;;26.30;99.50;;;;;;5075593;28;20032;-84
2021/09/12 03:01:44;;;;;;;25.27;20.52;;;26.20;99.50;;;;;;5092769;28;20054;-85
2021/09/12 03:04:10;;;;;;;23.30;19.42;;;26.20;99.50;;;;;;5094312;28;20495;-85
2021/09/12 03:06:36;;;;;;;22.27;18.45;;;26.20;99.50;;;;;;5092708;28;20081;-84
2021/09/12 03:09:01;;;;;;;21.60;18.10;;;26.30;99.50;;;;;;5093129;28;20032;-84
2021/09/12 03:11:27;;;;;;;22.48;17.65;;;26.20;99.50;;;;;;5092245;28;20032;-85
2021/09/12 03:13:53;;;;;;;22.40;18.17;;;26.30;99.50;;;;;;5092499;28;20024;-85
2021/09/12 03:16:18;;;;;;;23.70;18.58;;;26.20;99.50;;;;;;5093901;28;20042;-85
2021/09/12 03:18:45;;;;;;;19.73;16.75;;;26.20;99.50;;;;;;5093611;28;20047;-84
2021/09/12 03:21:11;;;;;;;22.02;17.77;;;26.20;99.50;;;;;;5093357;28;20071;-85
2021/09/12 03:23:37;;;;;;;20.85;16.70;;;26.30;99.50;;;;;;5092289;28;20032;-85
2021/09/12 03:26:03;;;;;;;21.17;17.08;;;26.20;99.50;;;;;;5093697;28;20016;-84
2021/09/12 03:28:29;;;;;;;21.40;16.45;;;26.20;99.40;;;;;;5093521;28;20038;-85
2021/09/12 03:30:54;;;;;;;20.50;15.90;;;26.20;99.40;;;;;;5093494;28;20381;-85
2021/09/12 03:33:20;;;;;;;21.98;16.80;;;26.20;99.40;;;;;;5093912;28;20430;-84
2021/09/12 03:35:47;;;;;;;18.58;15.15;;;26.30;99.50;;;;;;5092051;28;20032;-84
2021/09/12 03:38:14;;;;;;;18.88;15.80;;;26.20;99.40;;;;;;5092057;28;20024;-85
2021/09/12 03:40:40;;;;;;;22.10;15.88;;;26.20;99.40;;;;;;5075162;28;20039;-84
2021/09/12 03:43:07;;;;;;;18.17;14.77;;;26.20;99.40;;;;;;5075728;28;20050;-84
2021/09/12 03:45:32;;;;;;;20.45;15.35;;;26.20;99.40;;;;;;5092003;28;20095;-84
2021/09/12 03:47:58;;;;;;;17.55;14.48;;;26.20;99.40;;;;;;5093224;28;20137;-83
2021/09/12 03:50:24;;;;;;;17.52;14.48;;;26.20;99.40;;;;;;5075336;28;20470;-85
2021/09/12 03:52:50;;;;;;;16.52;13.93;;;26.20;99.40;;;;;;5075043;28;20041;-85
2021/09/12 03:55:15;;;;;;;16.77;14.32;;;26.20;99.40;;;;;;5093644;28;20092;-85
2021/09/12 03:57:41;;;;;;;19.35;13.90;;;26.20;99.40;;;;;;5091883;28;20032;-86
2021/09/12 04:00:08;;;;;;;17.92;13.90;;;26.20;99.40;;;;;;5091455;28;20498;-85
2021/09/12 04:02:37;;;;;;;18.35;14.30;;;26.20;99.40;;;;;;5093136;28;20458;-85
2021/09/12 04:05:05;;;;;;;15.60;12.65;;;26.20;99.40;;;;;;5091915;28;20481;-84
2021/09/12 04:07:30;;;;;;;16.70;13.00;;;26.20;99.40;;;;;;5092816;28;20533;-84
2021/09/12 04:09:56;;;;;;;16.55;13.95;;;26.20;99.40;;;;;;5092108;28;20113;-84
2021/09/12 04:12:22;;;;;;;15.43;13.10;;;26.20;99.40;;;;;;5096250;28;20051;-84
2021/09/12 04:14:47;;;;;;;15.07;12.75;;;26.20;99.40;;;;;;5095666;28;20444;-85
2021/09/12 04:17:14;;;;;;;14.95;12.10;;;26.20;99.40;;;;;;5096075;28;20039;-84
2021/09/12 04:19:39;;;;;;;14.88;12.35;;;26.20;99.40;;;;;;5096563;28;20081;-84
2021/09/12 04:22:05;;;;;;;16.42;12.00;;;26.20;99.40;;;;;;5095520;28;20075;-84
2021/09/12 04:24:31;;;;;;;16.00;12.80;;;26.20;99.40;;;;;;5096963;28;20059;-84
2021/09/12 04:26:56;;;;;;;13.02;11.27;;;26.20;99.40;;;;;;5096288;28;20036;-84
2021/09/12 04:29:22;;;;;;;14.10;11.57;;;26.20;99.40;;;;;;5096053;28;20064;-84
2021/09/12 04:31:48;;;;;;;13.63;11.15;;;26.20;99.40;;;;;;5079199;28;20028;-84
2021/09/12 04:34:14;;;;;;;13.15;11.40;;;26.20;99.40;;;;;;5079652;28;20111;-84
2021/09/12 04:36:40;;;;;;;13.55;11.10;;;26.20;99.40;;;;;;5096167;28;20032;-84
2021/09/12 04:39:06;;;;;;;15.60;11.60;;;26.20;99.40;;;;;;5097329;28;20035;-84
2021/09/12 04:41:31;;;;;;;13.23;10.70;;;26.20;99.40;;;;;;5095820;28;20081;-86
2021/09/12 04:43:57;;;;;;;12.77;9.88;;;26.20;99.40;;;;;;5078800;28;20116;-84
2021/09/12 04:46:23;;;;;;;12.00;10.23;;;26.20;99.40;;;;;;5095882;28;20081;-84
2021/09/12 04:48:48;;;;;;;13.07;10.35;;;26.20;99.40;;;;;;5096367;28;20047;-84
2021/09/12 04:51:14;;;;;;;12.63;9.77;;;26.20;99.40;;;;;;5096475;28;20024;-84
2021/09/12 04:53:40;;;;;;;10.57;9.05;;;26.20;99.30;;;;;;5095290;28;20032;-84
2021/09/12 04:56:05;;;;;;;10.80;9.65;;;26.20;99.30;;;;;;5096625;28;20028;-84
2021/09/12 04:58:31;;;;;;;11.25;9.35;;;26.20;99.30;;;;;;5095011;28;20389;-84
2021/09/12 05:00:56;;;;;;;10.82;9.10;;;26.20;99.30;;;;;;5095117;28;20040;-83
2021/09/12 05:03:23;;;;;;;11.23;9.20;;;26.20;99.30;;;;;;5095834;28;20024;-84
2021/09/12 05:05:49;;;;;;;12.93;10.23;;;26.20;99.30;;;;;;5095177;28;20039;-84
2021/09/12 05:08:15;;;;;;;10.82;9.23;;;26.20;99.30;;;;;;5097192;28;20036;-83
2021/09/12 05:10:40;;;;;;;11.13;9.20;;;26.20;99.30;;;;;;5078211;28;20047;-84
2021/09/12 05:13:06;;;;;;;11.30;8.73;;;26.20;99.30;;;;;;5095098;28;20035;-85
2021/09/12 05:15:31;;;;;;;10.35;8.63;;;26.20;99.30;;;;;;5096255;28;20028;-84
2021/09/12 05:17:57;;;;;;;11.00;8.32;;;26.20;99.30;;;;;;5095780;28;20028;-84
2021/09/12 05:20:23;;;;;;;11.57;8.68;;;26.20;99.30;;;;;;5095784;28;20056;-84
2021/09/12 05:22:49;;;;;;;11.40;8.48;;;26.20;99.30;;;;;;5095539;28;20060;-84
2021/09/12 05:25:15;;;;;;;10.55;8.10;;;26.20;99.30;;;;;;5095679;28;20410;-84
2021/09/12 05:27:42;;;;;;;10.30;7.88;;;26.20;99.50;;;;;;5094301;28;20371;-84
2021/09/12 05:30:08;;;;;;;9.15;7.78;;;26.10;99.20;;;;;;5095595;28;20035;-85
2021/09/12 05:32:34;;;;;;;11.75;7.93;;;26.20;99.20;;;;;;5095925;28;20466;-85
2021/09/12 05:34:59;;;;;;;9.13;7.55;;;26.20;99.30;;;;;;5094213;28;20177;-84
2021/09/12 05:37:25;;;;;;;11.05;7.20;;;26.10;99.20;;;;;;5094261;28;20035;-85
2021/09/12 05:39:51;;;;;;;9.80;7.10;;;26.20;99.20;;;;;;5095106;28;20504;-85
2021/09/12 05:42:16;;;;;;;10.13;7.32;;;26.20;99.20;;;;;;5077695;28;20185;-85
2021/09/12 05:44:42;;;;;;;9.70;7.47;;;26.10;99.20;;;;;;5095926;28;20032;-83
2021/09/12 05:47:08;;;;;;;8.50;6.88;;;26.20;99.20;;;;;;5095917;28;20424;-84
2021/09/12 05:49:33;;;;;;;8.70;7.22;;;26.10;99.20;;;;;;5095449;28;20032;-83
2021/09/12 05:51:59;;;;;;;9.77;7.35;;;26.10;99.10;;;;;;5094042;28;20024;-83
2021/09/12 05:54:25;;;;;;;8.70;6.78;;;26.10;99.10;;;;;;5095472;28;20024;-84
2021/09/12 05:56:50;;;;;;;9.80;6.80;;;26.10;99.10;;;;;;5075472;28;20024;-84
2021/09/12 05:59:19;;;;;;;11.60;7.60;;;26.10;99.10;;;;;;5077005;28;20040;-84
2021/09/12 06:01:44;;;;;;;8.93;6.70;;;26.10;99.10;;;;;;5093760;28;20107;-87
2021/09/12 06:04:10;;;;;;;11.13;7.72;;;26.10;99.10;;;;;;5095030;28;20442;-84
2021/09/12 06:06:36;;;;;;;12.30;8.55;;;26.10;99.10;;;;;;5095639;28;20472;-84
2021/09/12 06:09:02;;;;;;;13.63;9.50;;;26.10;99.20;;;;;;5095219;28;20056;-86
2021/09/12 06:11:28;;;;;;;12.32;9.27;;;26.10;99.20;;;;;;5093827;28;20115;-85
2021/09/12 06:13:53;;;;;;;12.48;9.18;;;26.10;99.10;;;;;;5093556;28;20407;-87
2021/09/12 06:16:19;;;;;;;11.48;9.25;;;26.10;99.10;;;;;;5094194;28;20504;-87
2021/09/12 06:18:44;;;;;;;14.65;9.13;;;26.10;99.10;;;;;;5093389;28;20032;-86
2021/09/12 06:21:10;;;;;;;13.10;9.07;;;26.10;99.00;;;;;;5076359;28;20059;-86
2021/09/12 06:23:36;;;;;;;12.55;8.75;;;26.10;99.00;;;;;;5076897;28;20032;-86
2021/09/12 06:26:01;;;;;;;10.43;8.50;;;26.10;98.90;;;;;;5092977;28;20050;-86
2021/09/12 06:28:27;;;;;;;12.27;8.40;;;26.10;98.90;;;;;;5091663;28;20032;-87
2021/09/12 06:30:53;;;;;;;12.35;8.60;;;26.10;98.90;;;;;;5092653;28;20035;-85
2021/09/12 06:33:19;;;;;;;10.82;8.27;;;26.10;98.80;;;;;;5093764;28;20064;-85
2021/09/12 06:35:45;;;;;;;9.52;7.47;;;26.10;98.80;;;;;;5109749;28;20501;-88
2021/09/12 06:38:11;;;;;;;10.38;7.57;;;26.10;98.80;;;;;;5110298;28;20028;-87
2021/09/12 06:40:36;;;;;;;10.77;7.80;;;26.00;98.70;;;;;;5093143;28;20036;-87
2021/09/12 06:43:03;;;;;;;9.90;7.07;;;26.00;98.70;;;;;;5092902;28;20032;-87
2021/09/12 06:45:30;;;;;;;8.52;6.38;;;26.00;98.70;;;;;;5093008;28;20039;-87
2021/09/12 06:47:56;;;;;;;11.55;6.57;;;26.10;98.70;;;;;;5109807;28;20124;-87
2021/09/12 06:50:23;;;;;;;9.90;6.15;;;26.10;98.70;;;;;;5093324;28;20059;-86
2021/09/12 06:52:49;;;;;;;10.82;7.15;;;26.00;98.70;;;;;;5092559;28;20492;-87
2021/09/12 06:55:15;;;;;;;9.98;6.28;;;26.00;98.70;;;;;;5109962;28;20024;-87
2021/09/12 06:57:41;;;;;;;9.25;6.38;;;26.10;98.70;;;;;;5092793;28;20466;-87
2021/09/12 07:00:09;;;;;;;8.05;5.53;;;26.00;98.70;;;;;;5092505;28;20040;-86
2021/09/12 07:02:39;;;;;;;9.90;6.25;;;26.00;98.70;;;;;;5092605;28;20028;-86
2021/09/12 07:05:06;;;;;;;8.50;5.57;;;26.00;98.70;;;;;;5092842;28;20115;-86
2021/09/12 07:07:32;;;;;;;10.60;5.93;;;26.00;98.60;;;;;;5094051;28;20024;-87
2021/09/12 07:09:58;;;;;;;8.20;5.50;;;26.10;98.70;;;;;;5092256;28;20032;-87
2021/09/12 07:12:23;;;;;;;6.97;5.40;;;26.00;98.60;;;;;;5092390;28;20031;-86
2021/09/12 07:14:49;;;;;;;8.05;5.32;;;26.10;98.70;;;;;;5093574;28;20039;-87
2021/09/12 07:17:15;;;;;;;9.50;5.32;;;26.00;98.60;;;;;;5092239;28;20542;-85
2021/09/12 07:19:41;;;;;;;6.53;5.13;;;26.00;98.60;;;;;;5091913;28;20088;-86
2021/09/12 07:22:07;;;;;;;7.93;5.10;;;26.00;98.60;;;;;;5092456;28;20378;-85
2021/09/12 07:24:34;;;;;;;7.45;4.78;;;26.00;98.60;;;;;;5091667;28;20113;-86
2021/09/12 07:27:00;;;;;;;7.40;4.43;;;26.00;98.60;;;;;;5092057;28;20032;-85
2021/09/12 07:29:26;;;;;;;9.68;5.05;;;26.00;98.60;;;;;;5109196;28;20036;-85
2021/09/12 07:31:52;;;;;;;7.15;4.93;;;26.00;98.60;;;;;;5089610;28;20073;-87
2021/09/12 07:34:18;;;;;;;7.32;4.95;;;26.00;98.60;;;;;;5075737;28;20085;-86
2021/09/12 07:36:44;;;;;;;6.72;4.65;;;26.00;98.60;;;;;;5074725;28;20379;-85
2021/09/12 07:39:12;;;;;;;7.95;4.72;;;26.00;98.60;;;;;;5091431;28;20043;-84
2021/09/12 07:41:39;;;;;;;6.97;4.07;;;26.00;98.60;;;;;;5093058;28;20090;-83
2021/09/12 07:44:05;;;;;;;6.68;4.40;;;26.00;98.60;;;;;;5074512;28;20044;-83
2021/09/12 07:46:30;;;;;;;7.88;4.07;;;26.00;98.60;;;;;;5091484;28;20050;-83
2021/09/12 07:48:56;;;;;;;7.85;4.63;;;26.00;98.60;;;;;;5092005;28;20036;-87
2021/09/12 07:51:22;;;;;;;7.78;4.63;;;26.00;98.80;;;;;;5075547;28;20062;-87
2021/09/12 07:53:48;;;;;;;8.07;4.50;;;26.00;98.70;;;;;;5075360;28;20036;-87
2021/09/12 07:56:14;;;;;;;7.70;4.97;;;26.00;98.70;;;;;;5092394;28;20028;-86
2021/09/12 07:58:39;;;;;;;13.95;5.55;;;26.00;98.70;;;;;;5074915;28;20492;-86
2021/09/12 08:01:05;;;;;;;9.23;4.95;;;26.00;98.80;;;;;;5091354;28;20054;-86
2021/09/12 08:03:30;;;;;;;13.82;5.35;;;26.00;98.90;;;;;;5058266;28;20055;-87
2021/09/12 08:05:56;;;;;;;11.57;5.38;;;26.00;98.90;;;;;;5074580;28;20385;-88
2021/09/12 08:08:23;;;;;;;11.38;5.72;;;26.00;98.90;;;;;;5074086;28;20031;-88
2021/09/12 08:10:49;;;;;;;11.65;6.68;;;26.00;99.00;;;;;;5092108;28;20048;-88
2021/09/12 08:13:15;;;;;;;13.27;7.20;;;25.90;99.00;;;;;;5092330;28;20048;-87
2021/09/12 08:15:40;;;;;;;12.52;8.00;;;25.90;99.00;;;;;;5093011;28;20024;-86
2021/09/12 08:18:06;;;;;;;13.60;8.30;;;25.90;99.10;;;;;;5074942;28;20036;-87
2021/09/12 08:20:32;;;;;;;14.50;8.32;;;25.90;99.10;;;;;;5074550;28;20068;-87
2021/09/12 08:22:58;;;;;;;14.65;9.35;;;25.90;99.20;;;;;;5074474;28;20036;-86
2021/09/12 08:25:24;;;;;;;12.65;8.20;;;26.00;99.20;;;;;;5093727;28;20070;-91
2021/09/12 08:27:50;;;;;;;16.42;9.70;;;26.00;99.30;;;;;;5092322;28;20040;-85
2021/09/12 08:30:18;;;;;;;13.10;8.90;;;26.00;99.30;;;;;;5091223;28;20031;-85
2021/09/12 08:32:44;;;;;;;11.52;8.00;;;26.00;99.30;;;;;;5091417;28;20032;-85
2021/09/12 08:35:10;;;;;;;13.07;8.75;;;25.90;99.40;;;;;;5091102;28;20032;-86
2021/09/12 08:38:05;;;;;;;14.80;7.80;;;25.90;99.40;;;;;;5093592;28;20054;-96
2021/09/12 08:40:31;;;;;;;15.50;7.65;;;25.90;99.40;;;;;;5082985;28;20501;-87
2021/09/12 08:42:59;;;;;;;11.07;6.70;;;25.90;99.40;;;;;;5091627;28;20051;-88
2021/09/12 08:45:27;;;;;;;11.70;6.30;;;26.00;99.40;;;;;;5094637;28;20327;-95
2021/09/12 08:47:54;;;;;;;10.32;5.70;;;25.90;99.30;;;;;;5095078;28;20027;-93
2021/09/12 08:50:22;;;;;;;8.50;6.15;;;25.90;99.30;;;;;;5079165;28;20036;-92
2021/09/12 08:52:48;;;;;;;9.52;5.88;;;26.00;99.40;;;;;;5098304;28;20018;-94
2021/09/12 08:55:17;;;;;;;8.77;5.32;;;26.00;99.40;;;;;;5079369;28;20048;-93
2021/09/12 08:57:51;;;;;;;8.45;4.93;;;25.90;99.40;;;;;;5102958;28;20024;-96
2021/09/12 09:00:21;;;;;;;;;;;25.90;99.40;;;;;;5097813;28;20089;-96
2021/09/12 09:02:47;;;;;;;9.02;4.35;;;26.00;99.40;;;;;;5098037;28;19914;-90
2021/09/12 09:05:13;;;;;;;8.35;4.60;;;25.90;99.40;;;;;;5097718;28;20545;-92
2021/09/12 09:07:39;;;;;;;8.68;4.53;;;25.90;99.40;;;;;;5096265;28;20031;-90
2021/09/12 09:10:19;;;;;;;7.00;4.32;;;25.90;99.40;;;;;;5096052;28;20378;-87
2021/09/12 09:12:45;;;;;;;8.10;4.03;;;25.90;99.40;;;;;;5095538;28;20114;-89
2021/09/12 09:15:20;;;;;;;5.65;3.92;;;25.90;99.50;;;;;;5095839;28;20035;-89
2021/09/12 09:17:52;;;;;;;5.78;3.50;;;25.90;99.50;;;;;;5095484;28;20544;-88
2021/09/12 09:20:20;;;;;;;5.35;3.47;;;25.80;99.40;;;;;;5078035;28;20056;-85
2021/09/12 09:22:48;;;;;;;4.80;3.28;;;25.80;99.30;;;;;;5096995;28;20039;-88
2021/09/12 09:25:18;;;;;;;7.10;3.35;;;25.80;99.30;;;;;;5095882;28;20470;-89
2021/09/12 09:27:52;;;;;;;4.07;2.92;;;25.70;99.20;;;;;;5095941;28;20016;-88
2021/09/12 09:30:18;;;;;;;6.07;2.78;;;25.70;99.20;;;;;;5094718;28;20027;-88
2021/09/12 09:32:44;;;;;;;5.80;2.78;;;25.70;99.20;;;;;;5094276;28;20032;-89
2021/09/12 09:35:19;;;;;;;4.07;2.13;;;25.70;99.10;;;;;;5094197;28;20485;-89
2021/09/12 09:37:49;;;;;;;4.55;2.60;;;25.70;99.10;;;;;;5094640;28;20107;-86
2021/09/12 09:40:14;;;;;;;5.10;2.65;;;25.70;99.20;;;;;;5093770;28;20462;-88
2021/09/12 09:42:42;;;;;;;3.97;2.53;;;25.70;99.10;;;;;;5094192;28;20034;-88
2021/09/12 09:45:13;;;;;;;2.90;2.40;;;25.60;99.10;;;;;;5095961;28;20111;-91
2021/09/12 09:47:43;;;;;;;3.42;2.38;;;25.60;99.00;;;;;;5097031;28;20020;-94
2021/09/12 09:50:25;;;;;;;2.30;1.65;;;25.60;99.00;;;;;;5096613;28;20039;-92
2021/09/12 09:52:55;;;;;;;3.17;2.00;;;25.60;98.90;;;;;;5097922;28;20031;-94
2021/09/12 09:55:24;;;;;;;3.67;1.90;;;25.60;98.90;;;;;;5097865;28;20030;-94
2021/09/12 09:57:52;;;;;;;2.25;1.60;;;25.60;98.90;;;;;;5094862;28;20078;-88
2021/09/12 10:00:19;;;;;;;2.75;1.90;;;25.60;98.80;;;;;;5077851;28;20032;-90
2021/09/12 10:02:53;;;;;;;3.08;1.65;;;25.60;98.80;;;;;;5077927;28;20036;-94
2021/09/12 10:05:20;;;;;;;2.30;1.60;;;25.60;98.80;;;;;;5095588;28;20028;-92
2021/09/12 10:07:48;;;;;;;2.60;1.63;;;25.70;98.80;;;;;;5102446;28;20020;-96
2021/09/12 10:10:25;;;;;;;2.60;1.30;;;25.70;98.80;;;;;;5025147;22;20075;-88
2021/09/12 10:12:53;;;;;;;3.42;1.77;;;25.70;98.70;;;;;;5059806;28;20033;-93
2021/09/12 10:15:26;;;;;;;2.30;1.20;;;25.70;98.80;;;;;;5055053;28;20064;-90
2021/09/12 10:17:53;;;;;;;2.50;1.27;;;25.70;98.70;;;;;;5054218;28;20056;-90
2021/09/12 10:20:25;;;;;;;2.47;1.45;;;25.70;98.70;;;;;;5054753;28;20037;-88
2021/09/12 10:22:56;;;;;;;1.75;1.23;;;25.70;98.70;;;;;;5054855;28;20108;-86
2021/09/12 10:25:27;;;;;;;3.03;1.48;;;25.80;98.70;;;;;;5053044;28;20025;-86
2021/09/12 10:28:03;;;;;;;3.65;1.52;;;25.80;98.70;;;;;;5054561;28;20025;-87
2021/09/12 10:30:38;;;;;;;2.40;1.15;;;25.80;98.70;;;;;;5053135;28;20060;-86
2021/09/12 10:33:11;;;;;;;3.22;1.20;;;25.80;98.70;;;;;;5053313;28;20025;-86
2021/09/12 10:35:54;;;;;;;4.22;1.20;;;25.80;98.70;;;;;;5054790;28;20025;-86
2021/09/12 10:38:32;;;;;;;1.88;1.10;;;25.80;98.60;;;;;;5054031;28;20017;-86
2021/09/12 10:40:57;;;;;;;3.33;0.93;;;25.80;98.60;;;;;;5052478;28;20493;-88
2021/09/12 10:43:26;;;;;;;2.55;1.33;;;25.90;98.40;;;;;;5053677;28;20033;-87
2021/09/12 10:46:04;;;;;;;1.20;1.10;;;25.90;98.30;;;;;;5053886;28;20025;-87
2021/09/12 10:48:31;;;;;;;2.83;1.10;;;25.80;98.30;;;;;;5052595;28;20025;-87
2021/09/12 10:50:58;;;;;;;1.90;1.15;;;25.90;98.30;;;;;;5052099;28;20475;-86
2021/09/12 10:53:42;;;;;;;1.90;1.02;;;25.90;98.40;;;;;;5052401;28;20148;-87
2021/09/12 10:56:09;;;;;;;2.28;1.33;;;25.90;98.40;;;;;;5052839;28;20021;-86
2021/09/12 10:58:35;;;;;;;1.40;1.00;;;25.90;98.40;;;;;;5052697;28;20036;-86
2021/09/12 11:01:02;;;;;;;1.27;1.00;;;25.90;98.40;;;;;;5031417;28;20038;-86
2021/09/12 11:03:28;;;;;;;1.50;1.20;;;25.90;98.40;;;;;;5032219;28;20083;-86
2021/09/12 11:05:55;;;;;;;1.65;1.10;;;25.90;98.30;;;;;;5033730;28;20136;-86
2021/09/12 11:08:38;;;;;;;1.90;1.20;;;25.90;98.20;;;;;;5033606;28;20030;-87
2021/09/12 11:11:05;;;;;;;2.28;1.10;;;25.90;98.20;;;;;;5051855;28;20045;-86
2021/09/12 11:13:32;;;;;;;1.52;1.02;;;25.90;98.20;;;;;;5053075;28;20470;-87
2021/09/12 11:16:13;;;;;;;1.45;1.13;;;26.00;98.20;;;;;;5035970;28;20086;-86
2021/09/12 11:18:48;;;;;;;2.22;1.10;;;25.90;98.10;;;;;;5052465;28;20095;-87
2021/09/12 11:21:34;;;;;;;1.80;1.23;;;25.90;98.10;;;;;;5051559;28;20057;-86
2021/09/12 11:24:06;;;;;;;2.55;1.30;;;25.90;98.10;;;;;;5053248;28;20040;-86
2021/09/12 11:26:46;;;;;;;1.40;0.90;;;26.00;98.10;;;;;;5052933;28;20028;-87
2021/09/12 11:29:13;;;;;;;1.58;1.25;;;25.90;98.00;;;;;;5052603;28;20134;-88
2021/09/12 11:31:43;;;;;;;1.23;1.10;;;26.00;98.00;;;;;;5053277;28;20029;-85
2021/09/12 11:34:10;;;;;;;1.88;1.10;;;26.00;98.00;;;;;;5052359;28;20028;-88
2021/09/12 11:36:41;;;;;;;2.67;1.10;;;26.00;98.00;;;;;;5029671;28;20042;-85
2021/09/12 11:39:06;;;;;;;3.08;1.20;;;26.00;97.90;;;;;;5040184;28;20124;-83
2021/09/12 11:41:32;;;;;;;2.65;1.13;;;26.00;98.00;;;;;;5032988;28;20151;-84
2021/09/12 11:43:59;;;;;;;1.92;1.10;;;25.90;98.00;;;;;;5047839;28;20033;-84
2021/09/12 11:46:26;;;;;;;1.80;1.00;;;25.90;98.20;;;;;;5031493;28;20033;-85
2021/09/12 11:49:04;;;;;;;2.28;1.20;;;26.00;98.20;;;;;;5051704;28;20105;-85
2021/09/12 11:51:31;;;;;;;1.75;1.20;;;25.90;98.20;;;;;;5051665;28;20116;-84
2021/09/12 11:54:08;;;;;;;1.38;1.05;;;25.90;98.40;;;;;;5051569;28;20029;-86
2021/09/12 11:56:35;;;;;;;2.33;1.38;;;25.80;98.50;;;;;;5047790;28;20029;-86
2021/09/12 11:59:02;;;;;;;2.42;1.30;;;25.90;98.60;;;;;;5050732;28;20418;-89
2021/09/12 12:01:28;;;;;;;2.90;1.05;;;25.80;98.60;;;;;;5051992;28;20021;-92
2021/09/12 12:03:57;;;;;;;1.73;1.20;;;25.80;98.70;;;;;;5053269;28;20100;-89
2021/09/12 12:06:23;;;;;;;2.72;1.45;;;25.80;98.80;;;;;;5051065;28;20506;-90
2021/09/12 12:09:10;;;;;;;2.97;1.25;;;25.70;98.80;;;;;;5018847;28;20040;-89
2021/09/12 12:11:39;;;;;;;3.03;1.17;;;25.70;99.00;;;;;;5048529;28;20045;-86
2021/09/12 12:14:08;;;;;;;3.15;1.40;;;25.70;99.00;;;;;;5051963;28;20021;-88
2021/09/12 12:16:39;;;;;;;4.90;1.17;;;25.70;99.10;;;;;;5050210;28;20025;-85
2021/09/12 12:19:13;;;;;;;6.57;1.27;;;25.70;99.10;;;;;;5051167;28;20021;-86
2021/09/12 12:21:41;;;;;;;2.67;1.47;;;25.70;99.20;;;;;;5051689;28;20022;-88
2021/09/12 12:24:10;;;;;;;6.63;1.65;;;25.70;99.20;;;;;;5051913;28;20275;-86
2021/09/12 12:26:49;;;;;;;2.45;1.20;;;25.70;99.30;;;;;;5050134;28;20059;-86
2021/09/12 12:29:30;;;;;;;3.13;1.40;;;25.70;99.30;;;;;;5050624;28;20033;-86
2021/09/12 12:31:59;;;;;;;5.78;1.42;;;25.70;99.20;;;;;;5050426;28;20021;-87
2021/09/12 12:34:51;;;;;;;2.95;1.20;;;25.70;99.20;;;;;;5055105;28;20094;-87
2021/09/12 12:37:22;;;;;;;4.88;1.77;;;25.70;99.10;;;;;;5054011;28;20025;-86
2021/09/12 12:39:59;;;;;;;2.65;1.33;;;25.70;99.00;;;;;;5053867;28;20044;-87